createdAt,value
2023-05-19T00:02:00.248Z,101534.97
2023-05-19T00:04:27.645Z,101537.81
2023-05-19T00:06:54.537Z,101533.97
2023-05-19T00:09:21.697Z,101535.28
2023-05-19T00:11:48.693Z,101531.38
2023-05-19T00:14:15.506Z,101530.75
2023-05-19T00:16:42.771Z,101531.38
2023-05-19T00:19:12.282Z,101531.03
2023-05-19T00:21:39.019Z,101528.59
2023-05-19T00:24:06.970Z,101526.16
2023-05-19T00:26:33.694Z,101524.84
2023-05-19T00:29:00.836Z,101518.78
2023-05-19T00:31:27.816Z,101521.13
2023-05-19T00:33:54.432Z,101525.16
2023-05-19T00:36:21.071Z,101520.94
2023-05-19T00:38:47.552Z,101522.00
2023-05-19T00:41:14.441Z,101532.13
2023-05-19T00:43:41.454Z,101522.47
2023-05-19T00:46:07.916Z,101524.66
2023-05-19T00:48:34.472Z,101523.78
2023-05-19T00:51:04.826Z,101522.69
2023-05-19T00:53:33.524Z,101527.75
2023-05-19T00:56:01.022Z,101515.63
2023-05-19T00:58:30.315Z,101529.13
2023-05-19T01:01:03.263Z,101532.69
2023-05-19T01:03:32.049Z,101528.03
2023-05-19T01:06:01.646Z,101533.59
2023-05-19T01:08:29.295Z,101524.44
2023-05-19T01:10:55.973Z,101530.84
2023-05-19T01:13:22.819Z,101531.78
2023-05-19T01:15:56.023Z,101529.66
2023-05-19T01:18:33.649Z,101527.88
2023-05-19T01:21:36.296Z,101538.84
2023-05-19T01:24:34.130Z,101538.22
2023-05-19T01:27:21.617Z,101527.94
2023-05-19T01:30:25.479Z,101530.03
2023-05-19T01:32:59.112Z,101535.91
2023-05-19T01:35:26.607Z,101534.28
2023-05-19T01:37:56.879Z,101529.34
2023-05-19T01:40:25.285Z,101536.09
2023-05-19T01:42:57.991Z,101536.72
2023-05-19T01:45:25.852Z,101532.81
2023-05-19T01:47:55.963Z,101542.31
2023-05-19T01:50:23.156Z,101539.72
2023-05-19T01:52:50.373Z,101533.16
2023-05-19T01:55:17.120Z,101528.91
2023-05-19T01:57:46.755Z,101529.91
2023-05-19T02:00:40.276Z,101530.41
2023-05-19T02:03:47.609Z,101530.59
2023-05-19T02:06:35.981Z,101528.47
2023-05-19T02:09:12.043Z,101533.19
2023-05-19T02:11:57.513Z,101538.41
2023-05-19T02:14:37.422Z,101535.97
2023-05-19T02:17:05.052Z,101529.59
2023-05-19T02:19:34.467Z,101528.47
2023-05-19T02:22:01.173Z,101536.44
2023-05-19T02:24:27.778Z,101540.69
2023-05-19T02:26:54.663Z,101534.50
2023-05-19T02:29:21.533Z,101533.84
2023-05-19T02:31:48.223Z,101541.66
2023-05-19T02:34:14.948Z,101545.72
2023-05-19T02:36:43.102Z,101544.91
2023-05-19T02:39:11.049Z,101539.19
2023-05-19T02:41:38.646Z,101542.78
2023-05-19T02:44:05.605Z,101540.53
2023-05-19T02:46:32.172Z,101531.88
2023-05-19T02:48:59.215Z,101536.28
2023-05-19T02:51:25.811Z,101535.63
2023-05-19T02:53:52.303Z,101542.13
2023-05-19T02:56:18.798Z,101536.13
2023-05-19T02:58:45.373Z,101541.03
2023-05-19T03:01:12.116Z,101540.06
2023-05-19T03:03:38.654Z,101534.81
2023-05-19T03:06:08.607Z,101531.25
2023-05-19T03:08:36.037Z,101529.78
2023-05-19T03:11:03.030Z,101530.22
2023-05-19T03:13:30.173Z,101530.41
2023-05-19T03:15:58.717Z,101526.63
2023-05-19T03:18:26.867Z,101525.66
2023-05-19T03:20:56.424Z,101517.31
2023-05-19T03:23:23.221Z,101515.94
2023-05-19T03:25:49.844Z,101521.78
2023-05-19T03:28:17.174Z,101511.19
2023-05-19T03:30:43.807Z,101515.28
2023-05-19T03:33:10.612Z,101517.25
2023-05-19T03:35:37.431Z,101516.13
2023-05-19T03:38:04.005Z,101524.59
2023-05-19T03:40:30.608Z,101522.59
2023-05-19T03:42:57.323Z,101525.16
2023-05-19T03:45:23.853Z,101526.81
2023-05-19T03:47:50.615Z,101533.16
2023-05-19T03:50:17.146Z,101526.53
2023-05-19T03:52:48.051Z,101536.03
2023-05-19T03:55:14.861Z,101537.25
2023-05-19T03:57:41.894Z,101535.66
2023-05-19T04:00:11.172Z,101533.34
2023-05-19T04:02:38.145Z,101530.22
2023-05-19T04:05:05.143Z,101526.31
2023-05-19T04:07:31.939Z,101523.06
2023-05-19T04:09:58.549Z,101534.84
2023-05-19T04:12:25.258Z,101535.03
2023-05-19T04:14:51.848Z,101526.06
2023-05-19T04:17:18.442Z,101521.63
2023-05-19T04:19:45.090Z,101529.94
2023-05-19T04:22:11.667Z,101534.22
2023-05-19T04:24:38.189Z,101536.16
2023-05-19T04:27:05.007Z,101535.34
2023-05-19T04:29:32.554Z,101540.88
2023-05-19T04:32:00.943Z,101527.84
2023-05-19T04:34:28.678Z,101531.41
2023-05-19T04:36:55.504Z,101530.47
2023-05-19T04:39:22.177Z,101529.19
2023-05-19T04:41:48.779Z,101531.75
2023-05-19T04:44:18.096Z,101529.00
2023-05-19T04:46:45.430Z,101534.75
2023-05-19T04:49:14.872Z,101543.53
2023-05-19T04:51:42.294Z,101537.16
2023-05-19T04:54:09.963Z,101535.72
2023-05-19T04:56:36.900Z,101545.81
2023-05-19T04:59:03.683Z,101542.72
2023-05-19T05:01:31.199Z,101553.03
2023-05-19T05:03:59.312Z,101544.75
2023-05-19T05:06:26.596Z,101549.47
2023-05-19T05:08:53.245Z,101543.31
2023-05-19T05:11:20.603Z,101553.06
2023-05-19T05:13:47.483Z,101543.81
2023-05-19T05:16:14.763Z,101543.81
2023-05-19T05:18:44.376Z,101548.84
2023-05-19T05:21:11.916Z,101554.38
2023-05-19T05:23:38.842Z,101545.41
2023-05-19T05:26:16.017Z,101544.28
2023-05-19T05:28:42.680Z,101549.03
2023-05-19T05:31:09.224Z,101535.81
2023-05-19T05:33:36.207Z,101541.47
2023-05-19T05:36:02.858Z,101542.44
2023-05-19T05:38:29.807Z,101540.19
2023-05-19T05:40:56.337Z,101548.19
2023-05-19T05:43:22.966Z,101537.09
2023-05-19T05:45:49.498Z,101536.72
2023-05-19T05:48:16.443Z,101536.09
2023-05-19T05:50:44.201Z,101540.59
2023-05-19T05:53:17.502Z,101538.00
2023-05-19T05:55:44.269Z,101538.63
2023-05-19T05:58:11.240Z,101538.63
2023-05-19T06:00:38.442Z,101537.63
2023-05-19T06:03:05.885Z,101526.69
2023-05-19T06:05:32.867Z,101527.69
2023-05-19T06:07:59.403Z,101528.41
2023-05-19T06:10:26.243Z,101527.75
2023-05-19T06:12:52.719Z,101525.81
2023-05-19T06:15:19.601Z,101526.16
2023-05-19T06:17:46.305Z,101530.94
2023-05-19T06:20:13.720Z,101525.94
2023-05-19T06:22:40.991Z,101522.47
2023-05-19T06:25:08.962Z,101524.72
2023-05-19T06:27:35.926Z,101519.38
2023-05-19T06:30:02.774Z,101526.31
2023-05-19T06:32:29.889Z,101519.94
2023-05-19T06:34:56.507Z,101528.63
2023-05-19T06:37:23.652Z,101523.34
2023-05-19T06:39:52.368Z,101522.34
2023-05-19T06:42:22.979Z,101525.22
2023-05-19T06:44:50.424Z,101528.97
2023-05-19T06:47:17.941Z,101515.06
2023-05-19T06:49:45.218Z,101514.63
2023-05-19T06:52:12.119Z,101508.38
2023-05-19T06:54:38.683Z,101509.56
2023-05-19T06:57:05.725Z,101512.81
2023-05-19T06:59:32.834Z,101508.19
2023-05-19T07:01:59.374Z,101507.59
2023-05-19T07:04:26.144Z,101506.22
2023-05-19T07:06:53.380Z,101507.22
2023-05-19T07:09:20.786Z,101514.91
2023-05-19T07:11:47.780Z,101504.34
2023-05-19T07:14:14.394Z,101500.75
2023-05-19T07:16:41.527Z,101504.66
2023-05-19T07:19:08.067Z,101502.91
2023-05-19T07:21:34.897Z,101498.75
2023-05-19T07:24:01.680Z,101499.44
2023-05-19T07:26:29.233Z,101498.56
2023-05-19T07:28:55.904Z,101492.91
2023-05-19T07:31:22.503Z,101488.63
2023-05-19T07:33:49.199Z,101498.53
2023-05-19T07:36:16.322Z,101491.38
2023-05-19T07:38:44.157Z,101489.38
2023-05-19T07:41:10.962Z,101485.34
2023-05-19T07:43:37.575Z,101486.59
2023-05-19T07:46:04.664Z,101481.97
2023-05-19T07:48:31.759Z,101478.03
2023-05-19T07:50:58.402Z,101474.25
2023-05-19T07:53:25.381Z,101478.63
2023-05-19T07:55:51.937Z,101482.94
2023-05-19T07:58:18.997Z,101474.50
2023-05-19T08:00:46.084Z,101473.47
2023-05-19T08:03:13.359Z,101471.19
2023-05-19T08:05:40.617Z,101463.72
2023-05-19T08:08:07.322Z,101459.84
2023-05-19T08:10:34.324Z,101468.00
2023-05-19T08:13:01.411Z,101457.31
2023-05-19T08:15:28.551Z,101460.56
2023-05-19T08:17:55.240Z,101455.97
2023-05-19T08:20:22.882Z,101453.53
2023-05-19T08:22:49.918Z,101448.22
2023-05-19T08:25:16.499Z,101452.16
2023-05-19T08:27:43.097Z,101444.06
2023-05-19T08:30:10.254Z,101438.69
2023-05-19T08:32:37.001Z,101431.38
2023-05-19T08:35:04.241Z,101434.63
2023-05-19T08:37:32.031Z,101430.72
2023-05-19T08:40:00.683Z,101422.31
2023-05-19T08:42:27.487Z,101423.94
2023-05-19T08:44:54.013Z,101421.22
2023-05-19T08:47:20.768Z,101425.44
2023-05-19T08:49:52.312Z,101410.34
2023-05-19T08:52:47.856Z,101423.53
2023-05-19T08:55:36.424Z,101422.00
2023-05-19T08:58:04.574Z,101411.78
2023-05-19T09:00:32.577Z,101412.78
2023-05-19T09:03:10.883Z,101410.06
2023-05-19T09:05:46.271Z,101414.66
2023-05-19T09:08:13.206Z,101412.41
2023-05-19T09:10:39.962Z,101399.69
2023-05-19T09:13:06.824Z,101383.72
2023-05-19T09:15:36.794Z,101385.03
2023-05-19T09:18:08.986Z,101390.44
2023-05-19T09:20:43.728Z,101388.66
2023-05-19T09:23:15.786Z,101385.88
2023-05-19T09:25:53.359Z,101381.34
2023-05-19T09:28:29.338Z,101375.84
2023-05-19T09:31:00.043Z,101376.16
2023-05-19T09:33:28.293Z,101372.69
2023-05-19T09:35:58.700Z,101379.97
2023-05-19T09:38:26.807Z,101382.34
2023-05-19T09:40:56.988Z,101374.75
2023-05-19T09:43:24.255Z,101374.00
2023-05-19T09:45:59.392Z,101367.50
2023-05-19T09:48:27.794Z,101375.47
2023-05-19T09:50:54.887Z,101373.88
2023-05-19T09:53:22.143Z,101372.31
2023-05-19T09:55:49.812Z,101375.59
2023-05-19T09:58:18.519Z,101374.00
2023-05-19T10:00:46.903Z,101373.13
2023-05-19T10:03:14.003Z,101365.44
2023-05-19T10:05:42.032Z,101365.13
2023-05-19T10:08:10.325Z,101361.09
2023-05-19T10:10:38.208Z,101365.16
2023-05-19T10:13:06.065Z,101350.69
2023-05-19T10:15:36.101Z,101349.94
2023-05-19T10:18:07.730Z,101342.38
2023-05-19T10:20:35.172Z,101340.13
2023-05-19T10:23:03.911Z,101338.38
2023-05-19T10:25:33.237Z,101332.03
2023-05-19T10:28:10.598Z,101343.34
2023-05-19T10:30:41.852Z,101335.09
2023-05-19T10:33:12.906Z,101341.19
2023-05-19T10:35:55.238Z,101340.19
2023-05-19T10:38:43.234Z,101339.63
2023-05-19T10:41:16.577Z,101336.94
2023-05-19T10:44:28.333Z,101326.09
2023-05-19T10:46:56.819Z,101325.44
2023-05-19T10:49:24.254Z,101310.25
2023-05-19T10:51:56.476Z,101327.81
2023-05-19T10:54:47.290Z,101320.97
2023-05-19T10:57:17.355Z,101322.28
2023-05-19T10:59:47.229Z,101319.31
2023-05-19T11:02:42.909Z,101323.88
2023-05-19T11:05:11.155Z,101311.88
2023-05-19T11:07:42.234Z,101316.59
2023-05-19T11:10:09.315Z,101315.19
2023-05-19T11:12:45.410Z,101318.06
2023-05-19T11:15:14.589Z,101308.28
2023-05-19T11:17:42.707Z,101309.97
2023-05-19T11:20:20.757Z,101305.69
2023-05-19T11:23:04.149Z,101299.97
2023-05-19T11:25:47.111Z,101306.19
2023-05-19T11:28:25.650Z,101306.66
2023-05-19T11:30:54.016Z,101311.00
2023-05-19T11:33:21.522Z,101299.19
2023-05-19T11:35:50.323Z,101290.81
2023-05-19T11:38:18.471Z,101289.81
2023-05-19T11:40:45.828Z,101286.31
2023-05-19T11:43:12.257Z,101291.03
2023-05-19T11:45:39.085Z,101290.00
2023-05-19T11:48:06.923Z,101267.13
2023-05-19T11:50:33.659Z,101263.34
2023-05-19T11:53:01.241Z,101280.09
2023-05-19T11:55:28.540Z,101268.63
2023-05-19T11:58:03.039Z,101264.31
2023-05-19T12:00:39.058Z,101272.25
2023-05-19T12:03:06.808Z,101272.91
2023-05-19T12:05:40.908Z,101263.31
2023-05-19T12:08:10.095Z,101262.28
2023-05-19T12:10:37.046Z,101252.41
2023-05-19T12:13:03.602Z,101261.91
2023-05-19T12:15:31.813Z,101256.69
2023-05-19T12:18:01.827Z,101260.34
2023-05-19T12:20:32.310Z,101249.19
2023-05-19T12:23:00.411Z,101246.81
2023-05-19T12:25:28.986Z,101247.19
2023-05-19T12:27:59.812Z,101240.31
2023-05-19T12:30:28.751Z,101232.34
2023-05-19T12:32:57.740Z,101240.19
2023-05-19T12:35:28.896Z,101237.00
2023-05-19T12:37:55.807Z,101226.03
2023-05-19T12:40:22.559Z,101232.78
2023-05-19T12:42:52.097Z,101223.38
2023-05-19T12:45:22.135Z,101228.06
2023-05-19T12:47:50.179Z,101229.16
2023-05-19T12:50:16.846Z,101224.72
2023-05-19T12:52:51.113Z,101217.06
2023-05-19T12:55:20.482Z,101218.78
2023-05-19T12:57:54.651Z,101222.84
2023-05-19T13:00:22.827Z,101220.69
2023-05-19T13:02:56.915Z,101216.03
2023-05-19T13:05:24.011Z,101221.75
2023-05-19T13:07:55.518Z,101203.34
2023-05-19T13:10:23.039Z,101211.75
2023-05-19T13:12:49.739Z,101207.22
2023-05-19T13:15:16.478Z,101195.75
2023-05-19T13:17:46.634Z,101192.47
2023-05-19T13:20:13.396Z,101200.38
2023-05-19T13:22:41.312Z,101202.81
2023-05-19T13:25:08.358Z,101194.50
2023-05-19T13:27:35.354Z,101199.06
2023-05-19T13:30:03.102Z,101203.78
2023-05-19T13:32:30.125Z,101192.50
2023-05-19T13:34:57.266Z,101186.72
2023-05-19T13:37:23.861Z,101174.34
2023-05-19T13:39:50.479Z,101179.13
2023-05-19T13:42:17.597Z,101178.00
2023-05-19T13:44:47.688Z,101177.09
2023-05-19T13:47:14.471Z,101186.06
2023-05-19T13:49:41.656Z,101172.63
2023-05-19T13:52:08.220Z,101181.72
2023-05-19T13:54:34.951Z,101176.31
2023-05-19T13:57:01.654Z,101178.19
2023-05-19T13:59:28.488Z,101168.50
2023-05-19T14:01:55.284Z,101174.28
2023-05-19T14:04:21.925Z,101165.03
2023-05-19T14:06:48.549Z,101166.94
2023-05-19T14:09:15.049Z,101163.00
2023-05-19T14:11:42.097Z,101170.38
2023-05-19T14:14:09.422Z,101168.63
2023-05-19T14:16:38.408Z,101154.78
2023-05-19T14:19:05.454Z,101159.69
2023-05-19T14:21:32.945Z,101156.44
2023-05-19T14:23:59.481Z,101145.16
2023-05-19T14:26:27.505Z,101148.72
2023-05-19T14:28:56.998Z,101152.41
2023-05-19T14:31:23.858Z,101143.06
2023-05-19T14:33:51.509Z,101138.63
2023-05-19T14:36:17.983Z,101142.38
2023-05-19T14:38:44.449Z,101141.94
2023-05-19T14:41:11.059Z,101139.44
2023-05-19T14:43:37.594Z,101132.38
2023-05-19T14:46:04.133Z,101127.63
2023-05-19T14:48:30.808Z,101131.50
2023-05-19T14:50:57.447Z,101125.94
2023-05-19T14:53:24.049Z,101133.94
2023-05-19T14:55:50.612Z,101132.34
2023-05-19T14:58:28.288Z,101135.47
2023-05-19T15:00:57.608Z,101130.19
2023-05-19T15:03:24.764Z,101129.91
2023-05-19T15:05:51.453Z,101129.19
2023-05-19T15:08:17.976Z,101125.97
2023-05-19T15:10:48.555Z,101111.78
2023-05-19T15:13:16.010Z,101123.88
2023-05-19T15:15:42.595Z,101120.72
2023-05-19T15:18:09.403Z,101119.66
2023-05-19T15:20:36.316Z,101116.34
2023-05-19T15:23:02.849Z,101114.72
2023-05-19T15:25:29.826Z,101120.16
2023-05-19T15:27:56.493Z,101099.41
2023-05-19T15:30:23.170Z,101097.50
2023-05-19T15:32:49.794Z,101099.97
2023-05-19T15:35:16.751Z,101097.59
2023-05-19T15:37:43.489Z,101097.59
2023-05-19T15:40:10.726Z,101099.66
2023-05-19T15:42:37.400Z,101101.09
2023-05-19T15:45:04.309Z,101095.44
2023-05-19T15:47:31.102Z,101095.13
2023-05-19T15:49:57.740Z,101088.66
2023-05-19T15:52:24.389Z,101085.81
2023-05-19T15:54:50.784Z,101083.88
2023-05-19T15:57:17.311Z,101083.69
2023-05-19T15:59:43.869Z,101081.44
2023-05-19T16:02:11.056Z,101087.44
2023-05-19T16:04:37.739Z,101074.31
2023-05-19T16:07:05.231Z,101074.84
2023-05-19T16:09:32.004Z,101074.78
2023-05-19T16:11:58.654Z,101067.78
2023-05-19T16:14:27.504Z,101065.88
2023-05-19T16:16:54.033Z,101069.09
2023-05-19T16:19:20.683Z,101074.09
2023-05-19T16:21:47.638Z,101071.16
2023-05-19T16:24:14.261Z,101063.38
2023-05-19T16:26:40.977Z,101060.56
2023-05-19T16:29:07.415Z,101067.22
2023-05-19T16:31:34.034Z,101066.38
2023-05-19T16:34:00.557Z,101071.09
2023-05-19T16:36:27.226Z,101070.53
2023-05-19T16:38:54.151Z,101071.78
2023-05-19T16:41:21.592Z,101067.22
2023-05-19T16:43:48.218Z,101070.19
2023-05-19T16:46:14.853Z,101055.78
2023-05-19T16:48:41.720Z,101060.94
2023-05-19T16:51:08.235Z,101063.50
2023-05-19T16:53:34.893Z,101055.97
2023-05-19T16:56:01.532Z,101059.00
2023-05-19T16:58:28.887Z,101059.88
2023-05-19T17:00:57.663Z,101050.09
2023-05-19T17:03:24.268Z,101056.75
2023-05-19T17:05:51.055Z,101059.16
2023-05-19T17:08:17.825Z,101055.41
2023-05-19T17:10:44.773Z,101055.84
2023-05-19T17:13:11.733Z,101057.47
2023-05-19T17:15:38.795Z,101054.81
2023-05-19T17:18:06.160Z,101059.09
2023-05-19T17:20:32.825Z,101063.94
2023-05-19T17:22:59.527Z,101068.78
2023-05-19T17:25:26.056Z,101062.03
2023-05-19T17:27:52.503Z,101069.34
2023-05-19T17:30:19.251Z,101068.19
2023-05-19T17:32:46.186Z,101070.56
2023-05-19T17:35:12.802Z,101077.16
2023-05-19T17:37:39.318Z,101072.41
2023-05-19T17:40:06.628Z,101073.50
2023-05-19T17:42:33.466Z,101073.16
2023-05-19T17:45:00.083Z,101076.56
2023-05-19T17:47:26.593Z,101067.06
2023-05-19T17:49:53.125Z,101072.72
2023-05-19T17:52:20.500Z,101075.16
2023-05-19T17:54:47.384Z,101076.94
2023-05-19T17:57:16.058Z,101077.81
2023-05-19T17:59:42.517Z,101088.44
2023-05-19T18:02:09.756Z,101080.88
2023-05-19T18:04:36.654Z,101091.78
2023-05-19T18:07:04.414Z,101096.72
2023-05-19T18:09:33.128Z,101096.00
2023-05-19T18:12:02.191Z,101099.22
2023-05-19T18:14:28.990Z,101100.09
2023-05-19T18:16:55.783Z,101096.56
2023-05-19T18:19:22.687Z,101095.78
2023-05-19T18:21:49.347Z,101098.59
2023-05-19T18:24:16.130Z,101108.28
2023-05-19T18:26:43.417Z,101109.06
2023-05-19T18:29:10.890Z,101110.69
2023-05-19T18:31:38.271Z,101112.72
2023-05-19T18:34:04.759Z,101116.34
2023-05-19T18:36:31.506Z,101107.88
2023-05-19T18:38:59.236Z,101114.34
2023-05-19T18:41:26.091Z,101118.75
2023-05-19T18:43:52.704Z,101117.16
2023-05-19T18:46:19.539Z,101112.72
2023-05-19T18:48:47.073Z,101121.97
2023-05-19T18:51:15.700Z,101124.78
2023-05-19T18:53:42.564Z,101113.91
2023-05-19T18:56:10.887Z,101118.34
2023-05-19T18:58:37.465Z,101119.94
2023-05-19T19:01:05.011Z,101120.75
2023-05-19T19:03:31.635Z,101118.72
2023-05-19T19:05:59.990Z,101119.50
2023-05-19T19:08:26.605Z,101121.91
2023-05-19T19:10:59.015Z,101126.69
2023-05-19T19:13:25.760Z,101116.97
2023-05-19T19:15:52.294Z,101135.47
2023-05-19T19:18:19.191Z,101131.81
2023-05-19T19:20:46.149Z,101135.75
2023-05-19T19:23:13.067Z,101128.91
2023-05-19T19:25:39.498Z,101135.75
2023-05-19T19:28:06.108Z,101137.75
2023-05-19T19:30:32.754Z,101145.78
2023-05-19T19:33:00.113Z,101148.94
2023-05-19T19:35:26.783Z,101145.00
2023-05-19T19:37:53.366Z,101153.72
2023-05-19T19:40:19.880Z,101150.84
2023-05-19T19:42:46.419Z,101152.69
2023-05-19T19:45:15.568Z,101151.88
2023-05-19T19:47:42.868Z,101154.28
2023-05-19T19:50:10.593Z,101158.16
2023-05-19T19:52:39.958Z,101160.50
2023-05-19T19:55:07.416Z,101160.03
2023-05-19T19:57:34.550Z,101165.91
2023-05-19T20:00:07.781Z,101165.00
2023-05-19T20:02:41.010Z,101165.41
2023-05-19T20:05:12.461Z,101173.75
2023-05-19T20:07:38.874Z,101182.47
2023-05-19T20:10:05.990Z,101178.44
2023-05-19T20:12:33.177Z,101185.50
2023-05-19T20:15:01.731Z,101186.34
2023-05-19T20:17:28.400Z,101180.72
2023-05-19T20:19:54.924Z,101182.66
2023-05-19T20:22:21.545Z,101177.44
2023-05-19T20:24:48.052Z,101182.34
2023-05-19T20:27:14.602Z,101186.78
2023-05-19T20:29:41.582Z,101180.28
2023-05-19T20:32:08.313Z,101178.28
2023-05-19T20:34:34.902Z,101192.66
2023-05-19T20:37:01.628Z,101197.41
2023-05-19T20:39:28.190Z,101190.34
2023-05-19T20:41:54.885Z,101191.16
2023-05-19T20:44:21.576Z,101194.03
2023-05-19T20:46:48.242Z,101189.75
2023-05-19T20:49:14.766Z,101196.09
2023-05-19T20:51:41.437Z,101198.88
2023-05-19T20:54:07.902Z,101196.84
2023-05-19T20:56:35.298Z,101202.47
2023-05-19T20:59:01.972Z,101199.66
2023-05-19T21:01:29.837Z,101206.41
2023-05-19T21:03:56.598Z,101200.00
2023-05-19T21:06:23.096Z,101208.78
2023-05-19T21:08:49.993Z,101204.00
2023-05-19T21:11:16.604Z,101204.66
2023-05-19T21:13:43.313Z,101202.16
2023-05-19T21:16:10.410Z,101198.25
2023-05-19T21:18:37.371Z,101201.91
2023-05-19T21:21:04.161Z,101200.72
2023-05-19T21:23:30.910Z,101193.50
2023-05-19T21:25:58.701Z,101201.00
2023-05-19T21:28:25.111Z,101207.22
2023-05-19T21:30:52.727Z,101210.78
2023-05-19T21:33:19.329Z,101214.19
2023-05-19T21:35:46.602Z,101215.91
2023-05-19T21:38:23.536Z,101218.50
2023-05-19T21:40:51.692Z,101222.03
2023-05-19T21:43:19.387Z,101223.69
2023-05-19T21:45:48.123Z,101219.63
2023-05-19T21:48:14.987Z,101233.03
2023-05-19T21:50:41.600Z,101227.25
2023-05-19T21:53:08.126Z,101233.25
2023-05-19T21:55:34.863Z,101229.59
2023-05-19T21:58:02.497Z,101229.75
2023-05-19T22:00:29.436Z,101226.06
2023-05-19T22:02:56.682Z,101230.03
2023-05-19T22:05:23.375Z,101224.78
2023-05-19T22:07:50.083Z,101235.16
2023-05-19T22:10:17.315Z,101226.25
2023-05-19T22:12:43.988Z,101221.25
2023-05-19T22:15:11.362Z,101226.16
2023-05-19T22:17:37.980Z,101223.81
2023-05-19T22:20:05.442Z,101224.59
2023-05-19T22:22:32.029Z,101220.53
2023-05-19T22:24:58.660Z,101220.31
2023-05-19T22:27:25.172Z,101223.97
2023-05-19T22:29:51.754Z,101219.19
2023-05-19T22:32:19.458Z,101213.66
2023-05-19T22:34:46.319Z,101206.78
2023-05-19T22:37:12.997Z,101217.53
2023-05-19T22:39:39.590Z,101216.00
2023-05-19T22:42:06.175Z,101220.59
2023-05-19T22:44:32.906Z,101217.00
2023-05-19T22:46:59.360Z,101217.53
2023-05-19T22:49:27.353Z,101221.28
2023-05-19T22:51:54.094Z,101214.38
2023-05-19T22:54:20.791Z,101214.78
2023-05-19T22:56:48.742Z,101211.44
2023-05-19T22:59:17.761Z,101212.44
2023-05-19T23:01:46.418Z,101212.53
2023-05-19T23:04:13.965Z,101211.34
2023-05-19T23:06:41.044Z,101209.44
2023-05-19T23:09:07.647Z,101206.91
2023-05-19T23:11:35.686Z,101207.28
2023-05-19T23:14:02.175Z,101201.56
2023-05-19T23:16:28.791Z,101206.78
2023-05-19T23:18:55.225Z,101205.44
2023-05-19T23:21:21.838Z,101208.28
2023-05-19T23:23:49.239Z,101208.13
2023-05-19T23:26:16.110Z,101208.28
2023-05-19T23:28:42.882Z,101202.00
2023-05-19T23:31:09.803Z,101211.34
2023-05-19T23:33:36.254Z,101206.75
2023-05-19T23:36:10.235Z,101201.06
2023-05-19T23:38:37.531Z,101205.44
2023-05-19T23:41:05.009Z,101208.03
2023-05-19T23:43:32.450Z,101197.34
2023-05-19T23:45:59.380Z,101199.59
2023-05-19T23:48:28.703Z,101199.13
2023-05-19T23:50:55.424Z,101197.72
2023-05-19T23:53:21.921Z,101196.78
2023-05-19T23:55:48.592Z,101194.13
2023-05-19T23:58:15.870Z,101193.34
